London Airport
CYXU : now visible

Airfield :











YOU CAN JOIN US ON...

 
LOGIN :

Register | Disclaimer

   EN    FR    IT 

 









Legend :    VFR   Marginal VFR   IFR   Intensive IFR   Very Intensive IFR
Visi :
Ceiling :
>= 8 km
>= 3000ft
5 to 8 km
1000 to 3000 ft
1500m to 5 km
500 to 1000 ft
800 to 1500m
200 to 500 ft
< 800m
< 200 ft
Symbols :   Thunderstorms  Fog  Heavy snow  Heavy precipitations  Wind > 20 kt






- Airport Elevation : 912 ft
- IATA code : YXU


CYXU - London

CURRENT METAR :
  • 301000Z 06003KT 010V070 15SM SKC 05/04 A3037 RMK SLP291

EXPIRED METARs :
  • 300900Z 05003KT 12SM SKC 05/05 A3036 RMK SLP289
  • 300800Z 05002KT 6SM BR SKC 05/05 A3036 RMK SLP289

TAF AMD TAF CYXU
Valid from the 30 at 08:00 until the 01 at 06:00 UTC


300810Z 3008/0106 VRB03KT P6SM SKC
TEMPO 3008/3013 2SM BR
PROB40 3008/3013 1/2SM FG VV002
FM301300 10007KT P6SM SKC
BECMG 0100/0102 05005KT RMK NXT FCST BY 301200Z
CZYZ FIR / North America



MET'MAP, your aeronautical weather chart ! - Copyright ORBIFLY December 2007 - Disclaimer

ORBIFLY MET'MAP TEAM :

Programming & Development : Alexandra Zaïnal
Original concept : Baudouin d'Aumeries
Technical & hardware support : Manuel Goepfert
Assistance : Marc-Olivier Méhu




SOURCES & CREDITS :

   NOAA       Earth
Advisory